Terminal Aerodrome Forecast
Issued by NWS Wilmington, NC

Current Version | Previous Version | Graphics & Text | Print | Product List | Glossary Off
Versions: 1 2 3 4 5 6 7 8 9 10 11 12

000
FTUS42 KILM 281100
TAFLBT
TAF
KLBT 281120Z 2812/2912 34008KT P6SM SKC
     FM281400 35010G16KT P6SM SKC
     FM282300 00000KT P6SM SKC=

USA.gov is the U.S. government's official web portal to all federal, state and local government web resources and services.